РПИ Туркменабат

Руководитель РПИ

Evgeny Vygornitsky*

Инструкторы РПИ
Evgeny Vygornitsky (Supervisor)
Vitaliy Alekseyev (Instructor)
Входит в состав
ЗЦ Центральная Азия

Диспетчеры РПИ

Диспетчер Рейтинг Допуски *

Аэропорты РПИ

ICAO Город Название Погода
UTAV Туркменабад Туркменабат UTAV 161800Z 34006KT 9999 FEW030CB OVC030 06/04 Q1014 R31/CLRD70 NOSIG